createdAt,value
2019-05-30T00:00:39.177Z,3.90
2019-05-30T00:03:10.967Z,5.50
2019-05-30T00:05:42.769Z,5.30
2019-05-30T00:08:14.554Z,4.63
2019-05-30T00:10:46.371Z,5.17
2019-05-30T00:13:18.087Z,4.67
2019-05-30T00:15:49.801Z,5.07
2019-05-30T00:18:21.509Z,4.43
2019-05-30T00:20:54.589Z,4.47
2019-05-30T00:23:26.512Z,4.80
2019-05-30T00:25:59.170Z,4.60
2019-05-30T00:28:31.035Z,4.70
2019-05-30T00:31:02.859Z,4.73
2019-05-30T00:33:34.548Z,5.80
2019-05-30T00:36:06.272Z,5.70
2019-05-30T00:38:37.992Z,5.00
2019-05-30T00:41:09.812Z,4.50
2019-05-30T00:43:41.634Z,4.93
2019-05-30T00:46:13.344Z,4.53
2019-05-30T00:48:45.053Z,4.10
2019-05-30T00:51:16.776Z,4.63
2019-05-30T00:53:48.493Z,4.93
2019-05-30T00:56:20.205Z,5.40
2019-05-30T00:58:51.904Z,5.03
2019-05-30T01:01:23.632Z,5.13
2019-05-30T01:03:56.620Z,4.10
2019-05-30T01:06:28.559Z,4.80
2019-05-30T01:09:01.173Z,3.47
2019-05-30T01:11:33.184Z,3.50
2019-05-30T01:14:05.443Z,3.80
2019-05-30T01:16:37.399Z,3.90
2019-05-30T01:19:09.113Z,3.80
2019-05-30T01:21:40.927Z,3.30
2019-05-30T01:24:12.638Z,3.50
2019-05-30T01:26:44.446Z,3.67
2019-05-30T01:29:16.141Z,3.47
2019-05-30T01:31:48.957Z,3.70
2019-05-30T01:34:20.649Z,3.20
2019-05-30T01:36:52.349Z,3.77
2019-05-30T01:39:24.074Z,2.83
2019-05-30T01:41:55.797Z,2.93
2019-05-30T01:44:27.531Z,2.87
2019-05-30T01:47:00.141Z,3.13
2019-05-30T01:49:31.951Z,3.60
2019-05-30T01:52:04.510Z,3.93
2019-05-30T01:54:36.382Z,3.23
2019-05-30T01:57:08.784Z,3.60
2019-05-30T01:59:40.708Z,3.20
2019-05-30T02:02:12.533Z,2.90
2019-05-30T02:04:44.240Z,2.93
2019-05-30T02:07:15.956Z,3.00
2019-05-30T02:09:47.651Z,3.27
2019-05-30T02:12:19.388Z,3.27
2019-05-30T02:14:51.116Z,3.10
2019-05-30T02:17:23.006Z,3.50
2019-05-30T02:19:54.699Z,4.07
2019-05-30T02:22:26.423Z,3.60
2019-05-30T02:24:58.115Z,3.27
2019-05-30T02:27:29.855Z,3.23
2019-05-30T02:30:04.020Z,3.30
2019-05-30T02:32:35.396Z,3.53
2019-05-30T02:35:08.417Z,3.17
2019-05-30T02:37:41.192Z,2.87
2019-05-30T02:40:15.236Z,3.57
2019-05-30T02:42:46.933Z,2.80
2019-05-30T02:45:18.951Z,2.93
2019-05-30T02:47:50.661Z,2.93
2019-05-30T02:50:22.345Z,3.00
2019-05-30T02:52:54.170Z,3.53
2019-05-30T02:55:25.966Z,2.80
2019-05-30T02:57:57.704Z,2.87
2019-05-30T03:00:34.420Z,2.97
2019-05-30T03:03:09.019Z,3.30
2019-05-30T03:05:39.940Z,2.63
2019-05-30T03:08:14.294Z,2.97
2019-05-30T03:10:45.580Z,3.13
2019-05-30T03:13:17.400Z,2.57
2019-05-30T03:15:49.397Z,2.90
2019-05-30T03:18:21.297Z,2.70
2019-05-30T03:20:53.101Z,3.00
2019-05-30T03:23:25.459Z,2.90
2019-05-30T03:25:57.271Z,2.70
2019-05-30T03:28:29.281Z,3.00
2019-05-30T03:31:05.876Z,3.40
2019-05-30T03:33:41.404Z,3.10
2019-05-30T03:36:20.007Z,3.10
2019-05-30T03:38:43.885Z,2.83
2019-05-30T03:41:15.720Z,2.70
2019-05-30T03:43:47.444Z,3.33
2019-05-30T03:46:23.464Z,2.90
2019-05-30T03:48:58.995Z,3.07
2019-05-30T03:51:32.197Z,2.80
2019-05-30T03:54:05.530Z,3.10
2019-05-30T03:56:44.044Z,2.53
2019-05-30T03:59:30.483Z,2.83
2019-05-30T04:02:15.986Z,2.73
2019-05-30T04:04:55.085Z,2.40
2019-05-30T04:07:31.188Z,3.00
2019-05-30T04:10:07.171Z,2.57
2019-05-30T04:12:47.757Z,2.73
2019-05-30T04:15:30.108Z,2.83
2019-05-30T04:18:01.901Z,2.77
2019-05-30T04:20:33.609Z,2.50
2019-05-30T04:23:05.408Z,2.60
2019-05-30T04:25:37.208Z,2.63
2019-05-30T04:28:09.723Z,3.07
2019-05-30T04:30:41.737Z,3.03
2019-05-30T04:33:26.455Z,2.93
2019-05-30T04:35:47.056Z,2.50
2019-05-30T04:38:19.536Z,3.20
2019-05-30T04:40:51.552Z,3.40
2019-05-30T04:43:23.255Z,3.83
2019-05-30T04:45:54.965Z,5.50
2019-05-30T04:48:26.745Z,5.80
2019-05-30T04:50:58.563Z,5.30
2019-05-30T04:53:30.284Z,5.40
2019-05-30T04:56:02.058Z,5.17
2019-05-30T04:58:33.872Z,5.03
2019-05-30T05:01:05.739Z,4.53
2019-05-30T05:03:45.668Z,4.40
2019-05-30T05:06:11.674Z,3.73
2019-05-30T05:08:43.586Z,3.60
2019-05-30T05:11:18.691Z,4.17
2019-05-30T05:13:48.912Z,4.07
2019-05-30T05:16:31.286Z,3.77
2019-05-30T05:18:54.260Z,3.70
2019-05-30T05:21:26.076Z,3.90
2019-05-30T05:23:57.857Z,3.83
2019-05-30T05:26:29.617Z,3.47
2019-05-30T05:29:01.345Z,3.63
2019-05-30T05:31:33.152Z,3.63
2019-05-30T05:34:04.859Z,3.73
2019-05-30T05:36:36.665Z,3.10
2019-05-30T05:39:08.356Z,2.87
2019-05-30T05:41:40.069Z,2.60
2019-05-30T05:44:11.761Z,3.03
2019-05-30T05:46:43.494Z,2.90
2019-05-30T05:49:16.283Z,2.65
2019-05-30T05:51:48.289Z,2.70
2019-05-30T05:54:20.904Z,2.70
2019-05-30T05:56:52.716Z,2.75
2019-05-30T05:59:25.209Z,2.95
2019-05-30T06:01:57.813Z,2.35
2019-05-30T06:04:29.509Z,2.85
2019-05-30T06:07:01.216Z,2.10
2019-05-30T06:09:32.927Z,2.35
2019-05-30T06:12:04.729Z,1.92
2019-05-30T06:14:36.453Z,1.90
2019-05-30T06:17:08.457Z,2.10
2019-05-30T06:19:46.413Z,1.85
2019-05-30T06:22:13.776Z,1.90
2019-05-30T06:24:45.481Z,1.80
2019-05-30T06:27:17.813Z,1.92
2019-05-30T06:29:49.681Z,1.40
2019-05-30T06:32:22.918Z,1.50
2019-05-30T06:34:54.801Z,1.55
2019-05-30T06:37:27.308Z,1.62
2019-05-30T06:39:59.130Z,1.45
2019-05-30T06:42:30.846Z,1.75
2019-05-30T06:45:03.254Z,1.30
2019-05-30T06:47:35.063Z,1.55
2019-05-30T06:50:07.281Z,1.20
2019-05-30T06:52:39.092Z,1.10
2019-05-30T06:55:11.429Z,1.30
2019-05-30T06:57:43.149Z,1.25
2019-05-30T07:00:16.264Z,1.20
2019-05-30T07:02:47.976Z,1.32
2019-05-30T07:05:20.351Z,1.50
2019-05-30T07:07:52.481Z,1.45
2019-05-30T07:10:24.865Z,1.00
2019-05-30T07:12:56.773Z,1.22
2019-05-30T07:15:29.255Z,1.15
2019-05-30T07:18:01.096Z,1.50
2019-05-30T07:20:33.829Z,1.40
2019-05-30T07:23:06.252Z,1.42
2019-05-30T07:25:37.984Z,1.10
2019-05-30T07:28:09.843Z,1.25
2019-05-30T07:30:41.638Z,1.25
2019-05-30T07:33:13.372Z,1.10
2019-05-30T07:35:45.177Z,1.00
2019-05-30T07:38:16.998Z,1.50
2019-05-30T07:40:48.792Z,1.52
2019-05-30T07:43:20.679Z,1.20
2019-05-30T07:45:57.956Z,0.95
2019-05-30T07:48:26.205Z,4.05
2019-05-30T07:50:57.933Z,1.00
2019-05-30T07:53:30.686Z,1.30
2019-05-30T07:56:02.704Z,1.42
2019-05-30T07:58:35.309Z,1.05
2019-05-30T08:01:07.156Z,0.88
2019-05-30T08:03:38.986Z,0.80
2019-05-30T08:06:10.685Z,1.00
2019-05-30T08:08:42.540Z,1.10
2019-05-30T08:11:14.372Z,0.90
2019-05-30T08:13:46.208Z,0.90
2019-05-30T08:16:18.017Z,0.80
2019-05-30T08:18:49.844Z,1.02
2019-05-30T08:21:21.564Z,1.40
2019-05-30T08:23:53.297Z,1.42
2019-05-30T08:26:25.021Z,1.40
2019-05-30T08:28:56.809Z,0.60
2019-05-30T08:31:28.673Z,0.80
2019-05-30T08:34:00.578Z,1.05
2019-05-30T08:36:32.828Z,0.90
2019-05-30T08:39:05.990Z,0.85
2019-05-30T08:41:37.713Z,1.60
2019-05-30T08:44:09.519Z,0.95
2019-05-30T08:46:41.252Z,0.88
2019-05-30T08:49:12.988Z,0.80
2019-05-30T08:51:44.697Z,0.98
2019-05-30T08:54:16.438Z,1.27
2019-05-30T08:56:48.164Z,0.70
2019-05-30T08:59:19.884Z,1.10
2019-05-30T09:01:53.220Z,0.70
2019-05-30T09:04:25.838Z,0.90
2019-05-30T09:06:57.676Z,0.78
2019-05-30T09:09:29.503Z,1.00
2019-05-30T09:12:01.215Z,0.90
2019-05-30T09:14:32.927Z,1.00
2019-05-30T09:17:04.836Z,0.95
2019-05-30T09:19:37.882Z,1.22
2019-05-30T09:22:10.381Z,0.80
2019-05-30T09:24:42.325Z,1.00
2019-05-30T09:27:14.140Z,0.72
2019-05-30T09:29:46.231Z,0.80
2019-05-30T09:32:18.112Z,1.00
2019-05-30T09:34:49.836Z,1.20
2019-05-30T09:37:21.588Z,1.50
2019-05-30T09:39:53.329Z,1.05
2019-05-30T09:42:25.129Z,0.93
2019-05-30T09:44:56.861Z,0.80
2019-05-30T09:47:28.565Z,1.10
2019-05-30T09:50:03.697Z,0.90
2019-05-30T09:52:34.114Z,0.80
2019-05-30T09:55:06.961Z,0.90
2019-05-30T09:57:38.665Z,0.95
2019-05-30T10:00:15.781Z,0.90
2019-05-30T10:02:48.658Z,0.80
2019-05-30T10:05:24.479Z,1.17
2019-05-30T10:07:54.771Z,1.12
2019-05-30T10:10:26.821Z,1.20
2019-05-30T10:12:58.536Z,1.40
2019-05-30T10:15:30.276Z,1.55
2019-05-30T10:18:02.109Z,1.40
2019-05-30T10:20:33.812Z,1.32
2019-05-30T10:23:05.560Z,1.32
2019-05-30T10:25:37.313Z,0.90
2019-05-30T10:28:09.057Z,1.00
2019-05-30T10:30:40.784Z,0.90
2019-05-30T10:33:13.567Z,0.80
2019-05-30T10:35:46.133Z,0.88
2019-05-30T10:38:20.071Z,0.98
2019-05-30T10:40:52.390Z,2.15
2019-05-30T10:43:24.600Z,2.00
2019-05-30T10:45:57.524Z,1.27
2019-05-30T10:48:29.317Z,1.12
2019-05-30T10:51:01.034Z,0.90
2019-05-30T10:53:32.852Z,0.85
2019-05-30T10:56:04.766Z,0.80
2019-05-30T10:58:36.498Z,1.02
2019-05-30T11:01:08.446Z,0.80
2019-05-30T11:03:40.275Z,1.07
2019-05-30T11:06:34.006Z,1.00
2019-05-30T11:09:05.580Z,2.35
2019-05-30T11:11:37.340Z,0.90
2019-05-30T11:14:09.048Z,1.37
2019-05-30T11:16:40.753Z,0.88
2019-05-30T11:19:12.461Z,1.35
2019-05-30T11:21:44.186Z,1.10
2019-05-30T11:24:15.897Z,0.95
2019-05-30T11:26:50.434Z,0.93
2019-05-30T11:29:21.220Z,1.10
2019-05-30T11:31:53.064Z,1.05
2019-05-30T11:34:24.798Z,1.30
2019-05-30T11:36:57.262Z,1.30
2019-05-30T11:39:29.134Z,1.00
2019-05-30T11:42:00.932Z,0.82
2019-05-30T11:44:32.633Z,1.10
2019-05-30T11:47:04.451Z,1.17
2019-05-30T11:49:36.273Z,0.90
2019-05-30T11:52:08.001Z,2.08
2019-05-30T11:54:39.709Z,1.30
2019-05-30T11:57:11.421Z,0.90
2019-05-30T11:59:43.153Z,1.42
2019-05-30T12:02:14.960Z,0.98
2019-05-30T12:04:46.678Z,0.88
2019-05-30T12:07:35.097Z,1.27
2019-05-30T12:09:52.846Z,0.90
2019-05-30T12:12:24.651Z,1.20
2019-05-30T12:14:57.357Z,1.32
2019-05-30T12:17:29.275Z,1.10
2019-05-30T12:20:01.924Z,1.37
2019-05-30T12:22:34.025Z,1.10
2019-05-30T12:25:06.682Z,1.87
2019-05-30T12:27:38.491Z,0.90
2019-05-30T12:30:11.131Z,1.27
2019-05-30T12:32:42.881Z,1.10
2019-05-30T12:35:14.879Z,0.80
2019-05-30T12:37:54.674Z,0.90
2019-05-30T12:40:21.826Z,1.02
2019-05-30T12:42:56.391Z,0.95
2019-05-30T12:45:27.593Z,1.10
2019-05-30T12:47:59.322Z,0.85
2019-05-30T12:50:31.021Z,0.70
2019-05-30T12:53:02.974Z,1.20
2019-05-30T12:55:37.519Z,1.15
2019-05-30T12:58:08.419Z,3.25
2019-05-30T13:00:40.930Z,3.00
2019-05-30T13:03:12.677Z,1.52
2019-05-30T13:05:44.378Z,1.50
2019-05-30T13:08:21.683Z,2.17
2019-05-30T13:10:49.808Z,1.62
2019-05-30T13:13:22.262Z,1.70
2019-05-30T13:15:54.547Z,1.45
2019-05-30T13:18:26.520Z,1.05
2019-05-30T13:20:58.224Z,1.30
2019-05-30T13:23:30.055Z,1.20
2019-05-30T13:26:02.025Z,1.37
2019-05-30T13:28:34.059Z,1.10
2019-05-30T13:31:07.112Z,0.85
2019-05-30T13:33:39.011Z,1.12
2019-05-30T13:36:10.804Z,1.35
2019-05-30T13:38:42.525Z,1.80
2019-05-30T13:41:14.231Z,6.60
2019-05-30T13:43:46.059Z,1.25
2019-05-30T13:46:17.955Z,1.12
2019-05-30T13:48:49.684Z,1.55
2019-05-30T13:51:21.542Z,1.22
2019-05-30T13:53:53.381Z,1.40
2019-05-30T13:56:25.077Z,1.10
2019-05-30T13:58:56.820Z,1.50
2019-05-30T14:01:28.553Z,1.72
2019-05-30T14:04:00.302Z,1.22
2019-05-30T14:06:32.080Z,1.05
2019-05-30T14:09:04.928Z,1.10
2019-05-30T14:11:36.740Z,1.32
2019-05-30T14:14:08.895Z,1.32
2019-05-30T14:16:40.760Z,1.67
2019-05-30T14:19:13.026Z,1.20
2019-05-30T14:21:44.867Z,1.35
2019-05-30T14:24:16.618Z,1.10
2019-05-30T14:26:48.428Z,1.30
2019-05-30T14:29:20.160Z,1.20
2019-05-30T14:31:51.886Z,1.60
2019-05-30T14:34:23.641Z,1.52
2019-05-30T14:36:55.377Z,1.50
2019-05-30T14:39:27.347Z,1.82
2019-05-30T14:41:59.061Z,1.32
2019-05-30T14:44:30.984Z,1.62
2019-05-30T14:47:02.699Z,1.27
2019-05-30T14:49:34.547Z,1.40
2019-05-30T14:52:06.710Z,1.15
2019-05-30T14:54:38.606Z,2.20
2019-05-30T14:57:11.004Z,1.42
2019-05-30T14:59:42.936Z,1.35
2019-05-30T15:02:14.864Z,1.35
2019-05-30T15:04:46.592Z,1.75
2019-05-30T15:07:18.329Z,1.77
2019-05-30T15:09:50.044Z,1.40
2019-05-30T15:12:21.749Z,1.47
2019-05-30T15:14:53.486Z,1.40
2019-05-30T15:17:25.216Z,1.77
2019-05-30T15:19:56.940Z,1.57
2019-05-30T15:22:28.628Z,1.55
2019-05-30T15:25:00.357Z,1.40
2019-05-30T15:27:32.069Z,1.40
2019-05-30T15:30:04.633Z,1.75
2019-05-30T15:32:36.329Z,1.47
2019-05-30T15:35:08.789Z,1.52
2019-05-30T15:37:41.185Z,1.72
2019-05-30T15:40:13.403Z,1.57
2019-05-30T15:42:45.105Z,1.20
2019-05-30T15:45:18.127Z,1.40
2019-05-30T15:47:50.053Z,1.60
2019-05-30T15:50:21.888Z,1.65
2019-05-30T15:52:53.573Z,1.60
2019-05-30T15:55:25.326Z,1.67
2019-05-30T15:57:57.247Z,1.57
2019-05-30T16:00:29.297Z,1.85
2019-05-30T16:03:01.112Z,1.55
2019-05-30T16:05:33.016Z,1.57
2019-05-30T16:08:04.825Z,1.40
2019-05-30T16:10:36.998Z,1.30
2019-05-30T16:13:08.901Z,1.30
2019-05-30T16:15:44.167Z,1.50
2019-05-30T16:18:14.332Z,1.40
2019-05-30T16:20:46.037Z,1.22
2019-05-30T16:23:18.799Z,1.70
2019-05-30T16:25:50.781Z,1.60
2019-05-30T16:28:22.489Z,1.55
2019-05-30T16:30:54.218Z,1.62
2019-05-30T16:33:26.368Z,1.52
2019-05-30T16:35:58.136Z,1.80
2019-05-30T16:38:29.839Z,2.70
2019-05-30T16:41:01.561Z,2.02
2019-05-30T16:43:33.398Z,2.60
2019-05-30T16:46:05.210Z,2.33
2019-05-30T16:48:36.911Z,1.85
2019-05-30T16:51:08.641Z,2.40
2019-05-30T16:53:40.361Z,1.72
2019-05-30T16:56:12.101Z,2.00
2019-05-30T16:58:43.799Z,1.67
2019-05-30T17:01:15.809Z,1.87
2019-05-30T17:03:47.629Z,2.02
2019-05-30T17:06:19.992Z,1.40
2019-05-30T17:08:51.761Z,2.40
2019-05-30T17:11:23.663Z,1.87
2019-05-30T17:13:55.367Z,1.98
2019-05-30T17:16:27.209Z,1.98
2019-05-30T17:18:59.021Z,1.67
2019-05-30T17:21:30.748Z,1.80
2019-05-30T17:24:02.460Z,2.00
2019-05-30T17:26:34.176Z,1.90
2019-05-30T17:29:05.986Z,1.52
2019-05-30T17:31:37.712Z,1.45
2019-05-30T17:34:09.420Z,2.17
2019-05-30T17:36:41.149Z,2.80
2019-05-30T17:39:12.976Z,1.32
2019-05-30T17:41:44.691Z,1.70
2019-05-30T17:44:16.383Z,2.20
2019-05-30T17:46:48.106Z,2.10
2019-05-30T17:49:19.838Z,2.00
2019-05-30T17:51:51.548Z,3.13
2019-05-30T17:54:23.847Z,1.90
2019-05-30T17:56:55.704Z,1.70
2019-05-30T17:59:28.593Z,1.50
2019-05-30T18:02:01.069Z,1.40
2019-05-30T18:04:32.880Z,1.73
2019-05-30T18:07:04.613Z,1.47
2019-05-30T18:09:36.341Z,4.90
2019-05-30T18:12:08.081Z,2.17
2019-05-30T18:14:39.869Z,1.37
2019-05-30T18:17:11.813Z,1.20
2019-05-30T18:19:43.601Z,1.30
2019-05-30T18:22:15.317Z,1.60
2019-05-30T18:24:47.031Z,1.30
2019-05-30T18:27:18.846Z,3.47
2019-05-30T18:29:50.556Z,1.43
2019-05-30T18:32:22.272Z,1.60
2019-05-30T18:34:57.234Z,1.63
2019-05-30T18:37:28.326Z,1.60
2019-05-30T18:40:00.276Z,1.97
2019-05-30T18:42:33.684Z,2.23
2019-05-30T18:45:06.221Z,4.00
2019-05-30T18:47:37.937Z,4.03
2019-05-30T18:50:09.645Z,3.40
2019-05-30T18:52:41.365Z,2.53
2019-05-30T18:55:13.073Z,3.13
2019-05-30T18:57:44.797Z,2.23
2019-05-30T19:00:18.023Z,1.90
2019-05-30T19:02:50.280Z,7.37
2019-05-30T19:05:22.213Z,9.10
2019-05-30T19:07:54.028Z,3.57
2019-05-30T19:10:26.438Z,3.27
2019-05-30T19:13:02.296Z,3.30
2019-05-30T19:15:54.801Z,3.27
2019-05-30T19:18:33.650Z,2.93
2019-05-30T19:23:59.113Z,2.67
2019-05-30T19:26:30.815Z,4.23
2019-05-30T19:29:02.836Z,2.27
2019-05-30T19:31:34.834Z,3.07
2019-05-30T19:34:08.187Z,2.33
2019-05-30T19:36:39.976Z,2.97
2019-05-30T19:39:11.697Z,2.20
2019-05-30T19:41:55.505Z,2.30
2019-05-30T19:44:16.999Z,2.50
2019-05-30T19:46:48.696Z,2.47
2019-05-30T19:49:20.408Z,2.60
2019-05-30T19:51:52.106Z,3.57
2019-05-30T19:54:23.850Z,3.10
2019-05-30T19:56:55.556Z,2.70
2019-05-30T19:59:27.277Z,2.83
2019-05-30T20:01:58.981Z,3.40
2019-05-30T20:04:30.714Z,3.10
2019-05-30T20:07:02.496Z,3.43
2019-05-30T20:09:34.559Z,3.90
2019-05-30T20:12:09.153Z,3.27
2019-05-30T20:14:41.308Z,4.20
2019-05-30T20:17:13.062Z,3.80
2019-05-30T20:19:44.849Z,4.20
2019-05-30T20:22:16.549Z,2.80
2019-05-30T20:24:48.282Z,2.70
2019-05-30T20:27:20.077Z,2.80
2019-05-30T20:29:51.780Z,2.83
2019-05-30T20:32:23.485Z,3.27
2019-05-30T20:34:55.193Z,3.17
2019-05-30T20:37:26.905Z,2.80
2019-05-30T20:39:58.641Z,2.50
2019-05-30T20:42:30.347Z,3.03
2019-05-30T20:45:04.979Z,2.20
2019-05-30T20:47:37.527Z,3.00
2019-05-30T20:50:10.209Z,2.87
2019-05-30T20:52:44.104Z,2.20
2019-05-30T20:55:15.647Z,2.00
2019-05-30T20:57:47.368Z,2.33
2019-05-30T21:00:21.695Z,2.00
2019-05-30T21:02:53.588Z,2.70
2019-05-30T21:05:25.309Z,2.60
2019-05-30T21:07:57.814Z,2.50
2019-05-30T21:10:30.230Z,2.87
2019-05-30T21:13:03.007Z,2.63
2019-05-30T21:15:35.522Z,2.37
2019-05-30T21:18:07.233Z,2.07
2019-05-30T21:20:40.053Z,2.80
2019-05-30T21:23:12.058Z,2.70
2019-05-30T21:25:45.094Z,2.50
2019-05-30T21:28:16.969Z,2.40
2019-05-30T21:30:48.678Z,2.40
2019-05-30T21:33:20.620Z,2.87
2019-05-30T21:35:52.525Z,2.30
2019-05-30T21:38:24.297Z,2.90
2019-05-30T21:40:56.014Z,2.40
2019-05-30T21:43:27.820Z,2.70
2019-05-30T21:45:59.510Z,2.47
2019-05-30T21:48:31.232Z,2.60
2019-05-30T21:51:02.933Z,2.30
2019-05-30T21:53:34.665Z,2.40
2019-05-30T21:56:06.379Z,2.13
2019-05-30T21:58:38.188Z,2.80
2019-05-30T22:01:37.453Z,2.00
2019-05-30T22:04:09.180Z,2.40
2019-05-30T22:06:40.940Z,2.93
2019-05-30T22:09:12.723Z,2.27
2019-05-30T22:11:45.594Z,2.63
2019-05-30T22:14:17.429Z,2.60
2019-05-30T22:16:50.266Z,2.50
2019-05-30T22:19:22.189Z,2.60
2019-05-30T22:21:53.916Z,2.73
2019-05-30T22:24:25.752Z,2.33
2019-05-30T22:26:57.455Z,2.27
2019-05-30T22:29:29.283Z,2.90
2019-05-30T22:32:00.988Z,2.63
2019-05-30T22:34:32.802Z,2.33
2019-05-30T22:37:04.494Z,2.50
2019-05-30T22:39:36.202Z,2.33
2019-05-30T22:42:07.889Z,2.53
2019-05-30T22:44:39.624Z,2.50
2019-05-30T22:47:11.319Z,2.27
2019-05-30T22:49:43.048Z,2.50
2019-05-30T22:52:14.793Z,2.70
2019-05-30T22:54:47.112Z,2.67
2019-05-30T22:57:18.924Z,2.60
2019-05-30T22:59:50.928Z,2.80
2019-05-30T23:02:22.859Z,3.30
2019-05-30T23:04:54.680Z,3.37
2019-05-30T23:07:26.397Z,2.70
2019-05-30T23:09:58.109Z,2.50
2019-05-30T23:12:29.806Z,2.90
2019-05-30T23:15:01.549Z,3.57
2019-05-30T23:17:33.259Z,3.40
2019-05-30T23:20:06.006Z,3.27
2019-05-30T23:22:37.716Z,3.40
2019-05-30T23:25:10.453Z,3.70
2019-05-30T23:27:42.267Z,3.60
2019-05-30T23:30:14.301Z,4.07
2019-05-30T23:32:46.000Z,4.07
2019-05-30T23:35:17.825Z,3.47
2019-05-30T23:37:50.548Z,3.90
2019-05-30T23:40:22.551Z,4.47
2019-05-30T23:42:55.104Z,4.60
2019-05-30T23:45:27.051Z,3.80
2019-05-30T23:47:59.783Z,3.63
2019-05-30T23:50:31.686Z,3.97
2019-05-30T23:53:03.488Z,3.50
2019-05-30T23:55:35.332Z,3.50
2019-05-30T23:58:07.036Z,2.97
